sensor_id;sensor_type;location;lat;lon;timestamp;P1;durP1;ratioP1;P2;durP2;ratioP2
68365;SDS011;55283;51.466;5.478;2023-02-02T00:00:43;22.40;;;20.05;;
68365;SDS011;55283;51.466;5.478;2023-02-02T00:03:08;21.47;;;19.17;;
68365;SDS011;55283;51.466;5.478;2023-02-02T00:05:34;22.65;;;20.25;;
68365;SDS011;55283;51.466;5.478;2023-02-02T00:08:00;23.97;;;21.13;;
68365;SDS011;55283;51.466;5.478;2023-02-02T00:10:26;22.42;;;20.13;;
68365;SDS011;55283;51.466;5.478;2023-02-02T00:12:51;22.27;;;19.77;;
68365;SDS011;55283;51.466;5.478;2023-02-02T00:15:18;21.80;;;19.50;;
68365;SDS011;55283;51.466;5.478;2023-02-02T00:17:43;21.60;;;19.30;;
68365;SDS011;55283;51.466;5.478;2023-02-02T00:20:09;21.17;;;18.97;;
68365;SDS011;55283;51.466;5.478;2023-02-02T00:22:34;21.70;;;19.40;;
68365;SDS011;55283;51.466;5.478;2023-02-02T00:25:00;20.30;;;18.30;;
68365;SDS011;55283;51.466;5.478;2023-02-02T00:27:25;20.93;;;18.70;;
68365;SDS011;55283;51.466;5.478;2023-02-02T00:29:50;21.27;;;18.98;;
68365;SDS011;55283;51.466;5.478;2023-02-02T00:32:18;20.67;;;18.47;;
68365;SDS011;55283;51.466;5.478;2023-02-02T00:34:44;20.33;;;18.13;;
68365;SDS011;55283;51.466;5.478;2023-02-02T00:37:09;20.30;;;18.13;;
68365;SDS011;55283;51.466;5.478;2023-02-02T00:39:34;20.37;;;18.23;;
68365;SDS011;55283;51.466;5.478;2023-02-02T00:42:00;19.85;;;17.75;;
68365;SDS011;55283;51.466;5.478;2023-02-02T00:44:25;19.93;;;17.83;;
68365;SDS011;55283;51.466;5.478;2023-02-02T00:47:09;19.60;;;17.50;;
68365;SDS011;55283;51.466;5.478;2023-02-02T00:49:35;20.35;;;18.25;;
68365;SDS011;55283;51.466;5.478;2023-02-02T00:52:00;19.20;;;17.20;;
68365;SDS011;55283;51.466;5.478;2023-02-02T00:54:26;19.93;;;17.90;;
68365;SDS011;55283;51.466;5.478;2023-02-02T00:56:51;18.73;;;16.83;;
68365;SDS011;55283;51.466;5.478;2023-02-02T00:59:17;19.17;;;17.10;;
68365;SDS011;55283;51.466;5.478;2023-02-02T01:01:42;18.63;;;16.67;;
68365;SDS011;55283;51.466;5.478;2023-02-02T01:04:08;18.67;;;16.75;;
68365;SDS011;55283;51.466;5.478;2023-02-02T01:06:33;18.87;;;16.50;;
68365;SDS011;55283;51.466;5.478;2023-02-02T01:08:59;18.47;;;16.57;;
68365;SDS011;55283;51.466;5.478;2023-02-02T01:11:24;17.90;;;15.97;;
68365;SDS011;55283;51.466;5.478;2023-02-02T01:13:50;18.45;;;16.23;;
68365;SDS011;55283;51.466;5.478;2023-02-02T01:16:15;17.90;;;16.00;;
68365;SDS011;55283;51.466;5.478;2023-02-02T01:18:41;17.88;;;16.08;;
68365;SDS011;55283;51.466;5.478;2023-02-02T01:21:08;18.10;;;15.77;;
68365;SDS011;55283;51.466;5.478;2023-02-02T01:23:36;16.73;;;15.00;;
68365;SDS011;55283;51.466;5.478;2023-02-02T01:26:03;16.67;;;14.98;;
68365;SDS011;55283;51.466;5.478;2023-02-02T01:28:30;16.98;;;15.18;;
68365;SDS011;55283;51.466;5.478;2023-02-02T01:30:56;16.57;;;14.87;;
68365;SDS011;55283;51.466;5.478;2023-02-02T01:33:22;17.25;;;14.85;;
68365;SDS011;55283;51.466;5.478;2023-02-02T01:35:52;17.60;;;15.80;;
68365;SDS011;55283;51.466;5.478;2023-02-02T01:38:20;16.07;;;14.37;;
68365;SDS011;55283;51.466;5.478;2023-02-02T01:40:54;16.25;;;14.55;;
68365;SDS011;55283;51.466;5.478;2023-02-02T01:43:22;16.60;;;14.90;;
68365;SDS011;55283;51.466;5.478;2023-02-02T01:45:50;16.43;;;14.10;;
68365;SDS011;55283;51.466;5.478;2023-02-02T01:48:17;16.42;;;14.77;;
68365;SDS011;55283;51.466;5.478;2023-02-02T01:50:45;16.15;;;14.45;;
68365;SDS011;55283;51.466;5.478;2023-02-02T01:53:14;15.97;;;14.27;;
68365;SDS011;55283;51.466;5.478;2023-02-02T01:55:40;16.05;;;14.35;;
68365;SDS011;55283;51.466;5.478;2023-02-02T01:58:08;16.42;;;14.73;;
68365;SDS011;55283;51.466;5.478;2023-02-02T02:00:41;15.20;;;13.60;;
68365;SDS011;55283;51.466;5.478;2023-02-02T02:03:10;15.47;;;13.87;;
68365;SDS011;55283;51.466;5.478;2023-02-02T02:05:43;16.40;;;14.70;;
68365;SDS011;55283;51.466;5.478;2023-02-02T02:08:28;14.75;;;13.25;;
68365;SDS011;55283;51.466;5.478;2023-02-02T02:10:58;14.60;;;13.10;;
68365;SDS011;55283;51.466;5.478;2023-02-02T02:13:24;15.63;;;14.02;;
68365;SDS011;55283;51.466;5.478;2023-02-02T02:33:45;14.00;;;12.60;;
68365;SDS011;55283;51.466;5.478;2023-02-02T02:42:07;13.80;;;12.40;;
68365;SDS011;55283;51.466;5.478;2023-02-02T02:44:36;14.20;;;12.70;;
68365;SDS011;55283;51.466;5.478;2023-02-02T02:47:02;14.23;;;12.83;;
68365;SDS011;55283;51.466;5.478;2023-02-02T02:49:28;13.93;;;11.63;;
68365;SDS011;55283;51.466;5.478;2023-02-02T02:51:53;13.07;;;11.70;;
68365;SDS011;55283;51.466;5.478;2023-02-02T02:57:04;12.83;;;11.53;;
68365;SDS011;55283;51.466;5.478;2023-02-02T03:02:32;12.68;;;11.38;;
68365;SDS011;55283;51.466;5.478;2023-02-02T03:10:25;12.77;;;11.38;;
68365;SDS011;55283;51.466;5.478;2023-02-02T03:12:53;12.38;;;11.07;;
68365;SDS011;55283;51.466;5.478;2023-02-02T03:15:19;12.30;;;11.00;;
68365;SDS011;55283;51.466;5.478;2023-02-02T03:17:45;13.27;;;11.87;;
68365;SDS011;55283;51.466;5.478;2023-02-02T03:20:13;11.80;;;10.60;;
68365;SDS011;55283;51.466;5.478;2023-02-02T03:22:39;12.27;;;10.63;;
68365;SDS011;55283;51.466;5.478;2023-02-02T03:25:05;12.27;;;11.07;;
68365;SDS011;55283;51.466;5.478;2023-02-02T03:27:31;11.82;;;10.55;;
68365;SDS011;55283;51.466;5.478;2023-02-02T03:29:57;12.03;;;10.83;;
68365;SDS011;55283;51.466;5.478;2023-02-02T03:32:23;12.07;;;10.88;;
68365;SDS011;55283;51.466;5.478;2023-02-02T03:34:49;11.00;;;9.90;;
68365;SDS011;55283;51.466;5.478;2023-02-02T03:37:15;12.30;;;10.98;;
68365;SDS011;55283;51.466;5.478;2023-02-02T03:39:40;11.77;;;10.57;;
68365;SDS011;55283;51.466;5.478;2023-02-02T03:42:05;11.37;;;10.17;;
68365;SDS011;55283;51.466;5.478;2023-02-02T03:44:31;12.17;;;10.97;;
68365;SDS011;55283;51.466;5.478;2023-02-02T03:46:56;11.40;;;10.20;;
68365;SDS011;55283;51.466;5.478;2023-02-02T03:49:21;11.50;;;10.33;;
68365;SDS011;55283;51.466;5.478;2023-02-02T03:51:47;11.67;;;10.50;;
68365;SDS011;55283;51.466;5.478;2023-02-02T03:54:13;11.87;;;10.67;;
68365;SDS011;55283;51.466;5.478;2023-02-02T03:56:38;11.02;;;9.93;;
68365;SDS011;55283;51.466;5.478;2023-02-02T03:59:04;10.97;;;9.87;;
68365;SDS011;55283;51.466;5.478;2023-02-02T04:01:29;11.43;;;10.32;;
68365;SDS011;55283;51.466;5.478;2023-02-02T04:03:55;11.40;;;10.20;;
68365;SDS011;55283;51.466;5.478;2023-02-02T04:06:22;10.90;;;9.77;;
68365;SDS011;55283;51.466;5.478;2023-02-02T04:08:48;11.10;;;9.93;;
68365;SDS011;55283;51.466;5.478;2023-02-02T04:11:13;10.65;;;9.60;;
68365;SDS011;55283;51.466;5.478;2023-02-02T04:13:39;10.30;;;9.20;;
68365;SDS011;55283;51.466;5.478;2023-02-02T04:16:07;10.40;;;9.30;;
68365;SDS011;55283;51.466;5.478;2023-02-02T04:18:33;10.40;;;9.40;;
68365;SDS011;55283;51.466;5.478;2023-02-02T04:21:02;10.33;;;9.23;;
68365;SDS011;55283;51.466;5.478;2023-02-02T04:23:28;10.35;;;9.25;;
68365;SDS011;55283;51.466;5.478;2023-02-02T04:25:54;10.07;;;8.95;;
68365;SDS011;55283;51.466;5.478;2023-02-02T04:28:20;10.03;;;8.93;;
68365;SDS011;55283;51.466;5.478;2023-02-02T04:30:47;10.18;;;9.05;;
68365;SDS011;55283;51.466;5.478;2023-02-02T04:33:13;9.77;;;8.77;;
68365;SDS011;55283;51.466;5.478;2023-02-02T04:35:39;9.93;;;8.83;;
68365;SDS011;55283;51.466;5.478;2023-02-02T04:38:04;10.30;;;9.20;;
68365;SDS011;55283;51.466;5.478;2023-02-02T04:40:30;10.57;;;8.77;;
68365;SDS011;55283;51.466;5.478;2023-02-02T04:42:56;11.17;;;8.87;;
68365;SDS011;55283;51.466;5.478;2023-02-02T04:45:22;9.27;;;8.38;;
68365;SDS011;55283;51.466;5.478;2023-02-02T04:47:47;10.47;;;9.20;;
68365;SDS011;55283;51.466;5.478;2023-02-02T04:50:12;9.77;;;8.77;;
68365;SDS011;55283;51.466;5.478;2023-02-02T04:52:38;9.68;;;8.75;;
68365;SDS011;55283;51.466;5.478;2023-02-02T04:55:03;9.67;;;8.63;;
68365;SDS011;55283;51.466;5.478;2023-02-02T04:57:29;9.33;;;8.30;;
68365;SDS011;55283;51.466;5.478;2023-02-02T04:59:54;9.97;;;8.67;;
68365;SDS011;55283;51.466;5.478;2023-02-02T05:02:19;9.32;;;8.27;;
68365;SDS011;55283;51.466;5.478;2023-02-02T05:04:45;9.67;;;8.67;;
68365;SDS011;55283;51.466;5.478;2023-02-02T05:07:10;9.57;;;8.57;;
68365;SDS011;55283;51.466;5.478;2023-02-02T05:09:36;9.33;;;8.33;;
68365;SDS011;55283;51.466;5.478;2023-02-02T05:12:01;8.63;;;7.70;;
68365;SDS011;55283;51.466;5.478;2023-02-02T05:14:27;9.77;;;7.88;;
68365;SDS011;55283;51.466;5.478;2023-02-02T05:16:52;8.50;;;7.63;;
68365;SDS011;55283;51.466;5.478;2023-02-02T05:19:18;8.63;;;7.72;;
68365;SDS011;55283;51.466;5.478;2023-02-02T05:21:44;9.03;;;7.93;;
68365;SDS011;55283;51.466;5.478;2023-02-02T05:24:10;9.25;;;7.85;;
68365;SDS011;55283;51.466;5.478;2023-02-02T05:26:36;8.87;;;7.97;;
68365;SDS011;55283;51.466;5.478;2023-02-02T05:29:02;8.82;;;7.93;;
68365;SDS011;55283;51.466;5.478;2023-02-02T05:31:28;8.63;;;7.73;;
68365;SDS011;55283;51.466;5.478;2023-02-02T05:33:55;8.80;;;7.90;;
68365;SDS011;55283;51.466;5.478;2023-02-02T05:36:20;9.50;;;7.80;;
68365;SDS011;55283;51.466;5.478;2023-02-02T05:38:46;8.95;;;7.60;;
68365;SDS011;55283;51.466;5.478;2023-02-02T05:41:11;8.30;;;7.50;;
68365;SDS011;55283;51.466;5.478;2023-02-02T05:43:36;8.13;;;7.33;;
68365;SDS011;55283;51.466;5.478;2023-02-02T05:46:02;8.10;;;7.30;;
68365;SDS011;55283;51.466;5.478;2023-02-02T05:48:27;8.47;;;7.33;;
68365;SDS011;55283;51.466;5.478;2023-02-02T05:51:00;7.97;;;7.17;;
68365;SDS011;55283;51.466;5.478;2023-02-02T05:53:29;8.70;;;7.80;;
68365;SDS011;55283;51.466;5.478;2023-02-02T05:55:56;8.73;;;7.83;;
68365;SDS011;55283;51.466;5.478;2023-02-02T05:58:21;7.90;;;7.10;;
68365;SDS011;55283;51.466;5.478;2023-02-02T06:00:47;8.20;;;7.40;;
68365;SDS011;55283;51.466;5.478;2023-02-02T06:03:12;8.03;;;6.90;;
68365;SDS011;55283;51.466;5.478;2023-02-02T06:05:38;7.80;;;7.00;;
68365;SDS011;55283;51.466;5.478;2023-02-02T06:08:04;7.68;;;6.88;;
68365;SDS011;55283;51.466;5.478;2023-02-02T06:10:29;8.20;;;7.40;;
68365;SDS011;55283;51.466;5.478;2023-02-02T06:12:57;8.27;;;7.35;;
68365;SDS011;55283;51.466;5.478;2023-02-02T06:15:23;7.37;;;6.67;;
68365;SDS011;55283;51.466;5.478;2023-02-02T06:17:48;7.45;;;6.68;;
68365;SDS011;55283;51.466;5.478;2023-02-02T06:20:14;7.53;;;6.60;;
68365;SDS011;55283;51.466;5.478;2023-02-02T06:22:39;7.83;;;7.03;;
68365;SDS011;55283;51.466;5.478;2023-02-02T06:25:06;7.57;;;6.78;;
68365;SDS011;55283;51.466;5.478;2023-02-02T06:27:32;8.07;;;6.80;;
68365;SDS011;55283;51.466;5.478;2023-02-02T06:29:58;7.30;;;6.60;;
68365;SDS011;55283;51.466;5.478;2023-02-02T06:32:23;7.20;;;6.50;;
68365;SDS011;55283;51.466;5.478;2023-02-02T06:34:49;7.73;;;6.53;;
68365;SDS011;55283;51.466;5.478;2023-02-02T06:37:14;7.87;;;6.90;;
68365;SDS011;55283;51.466;5.478;2023-02-02T06:39:39;7.00;;;6.30;;
68365;SDS011;55283;51.466;5.478;2023-02-02T06:42:05;7.13;;;6.23;;
68365;SDS011;55283;51.466;5.478;2023-02-02T06:44:30;8.27;;;6.63;;
68365;SDS011;55283;51.466;5.478;2023-02-02T06:46:56;7.13;;;6.40;;
68365;SDS011;55283;51.466;5.478;2023-02-02T06:49:21;7.23;;;6.53;;
68365;SDS011;55283;51.466;5.478;2023-02-02T06:51:47;7.07;;;6.37;;
68365;SDS011;55283;51.466;5.478;2023-02-02T06:54:12;9.20;;;6.00;;
68365;SDS011;55283;51.466;5.478;2023-02-02T06:56:39;7.03;;;6.00;;
68365;SDS011;55283;51.466;5.478;2023-02-02T06:59:04;5.78;;;5.13;;
68365;SDS011;55283;51.466;5.478;2023-02-02T07:01:30;8.23;;;6.00;;
68365;SDS011;55283;51.466;5.478;2023-02-02T07:03:56;7.65;;;6.07;;
68365;SDS011;55283;51.466;5.478;2023-02-02T07:06:23;8.23;;;5.67;;
68365;SDS011;55283;51.466;5.478;2023-02-02T07:08:51;9.52;;;5.70;;
68365;SDS011;55283;51.466;5.478;2023-02-02T07:11:17;6.10;;;5.47;;
68365;SDS011;55283;51.466;5.478;2023-02-02T07:13:43;6.43;;;5.60;;
68365;SDS011;55283;51.466;5.478;2023-02-02T07:16:10;7.40;;;5.18;;
68365;SDS011;55283;51.466;5.478;2023-02-02T07:18:37;9.27;;;4.80;;
68365;SDS011;55283;51.466;5.478;2023-02-02T07:21:02;8.00;;;5.30;;
68365;SDS011;55283;51.466;5.478;2023-02-02T07:23:28;7.43;;;5.10;;
68365;SDS011;55283;51.466;5.478;2023-02-02T07:26:04;6.07;;;4.85;;
68365;SDS011;55283;51.466;5.478;2023-02-02T07:28:33;6.07;;;5.05;;
68365;SDS011;55283;51.466;5.478;2023-02-02T07:31:00;8.98;;;5.05;;
68365;SDS011;55283;51.466;5.478;2023-02-02T07:33:35;13.20;;;4.23;;
68365;SDS011;55283;51.466;5.478;2023-02-02T07:36:04;13.50;;;3.88;;
68365;SDS011;55283;51.466;5.478;2023-02-02T07:38:30;9.00;;;4.20;;
68365;SDS011;55283;51.466;5.478;2023-02-02T07:40:55;11.03;;;3.70;;
68365;SDS011;55283;51.466;5.478;2023-02-02T07:43:20;9.73;;;3.20;;
68365;SDS011;55283;51.466;5.478;2023-02-02T07:45:46;13.30;;;3.20;;
68365;SDS011;55283;51.466;5.478;2023-02-02T07:48:11;11.57;;;3.30;;
68365;SDS011;55283;51.466;5.478;2023-02-02T07:50:37;9.17;;;3.07;;
68365;SDS011;55283;51.466;5.478;2023-02-02T07:53:02;14.07;;;3.17;;
68365;SDS011;55283;51.466;5.478;2023-02-02T07:55:27;12.10;;;3.70;;
68365;SDS011;55283;51.466;5.478;2023-02-02T07:57:53;11.23;;;3.50;;
68365;SDS011;55283;51.466;5.478;2023-02-02T08:00:19;9.88;;;3.33;;
68365;SDS011;55283;51.466;5.478;2023-02-02T08:02:47;9.82;;;3.30;;
68365;SDS011;55283;51.466;5.478;2023-02-02T08:05:13;8.45;;;3.13;;
68365;SDS011;55283;51.466;5.478;2023-02-02T08:07:38;9.27;;;3.40;;
68365;SDS011;55283;51.466;5.478;2023-02-02T08:10:04;11.00;;;3.70;;
68365;SDS011;55283;51.466;5.478;2023-02-02T08:12:29;8.98;;;3.40;;
68365;SDS011;55283;51.466;5.478;2023-02-02T08:14:55;9.60;;;3.23;;
68365;SDS011;55283;51.466;5.478;2023-02-02T08:17:22;10.10;;;3.30;;
68365;SDS011;55283;51.466;5.478;2023-02-02T08:19:48;9.80;;;3.57;;
68365;SDS011;55283;51.466;5.478;2023-02-02T08:22:13;8.83;;;3.20;;
68365;SDS011;55283;51.466;5.478;2023-02-02T08:24:39;7.27;;;3.37;;
68365;SDS011;55283;51.466;5.478;2023-02-02T08:27:06;8.05;;;3.17;;
68365;SDS011;55283;51.466;5.478;2023-02-02T08:29:33;7.15;;;3.08;;
68365;SDS011;55283;51.466;5.478;2023-02-02T08:32:02;8.57;;;3.47;;
68365;SDS011;55283;51.466;5.478;2023-02-02T08:34:28;6.82;;;3.00;;
68365;SDS011;55283;51.466;5.478;2023-02-02T08:36:53;10.83;;;3.23;;
68365;SDS011;55283;51.466;5.478;2023-02-02T08:39:19;8.50;;;3.13;;
68365;SDS011;55283;51.466;5.478;2023-02-02T08:41:44;8.33;;;3.03;;
68365;SDS011;55283;51.466;5.478;2023-02-02T08:44:13;9.63;;;3.70;;
68365;SDS011;55283;51.466;5.478;2023-02-02T08:46:40;8.70;;;3.10;;
68365;SDS011;55283;51.466;5.478;2023-02-02T08:49:06;9.43;;;3.57;;
68365;SDS011;55283;51.466;5.478;2023-02-02T08:51:35;10.25;;;3.00;;
68365;SDS011;55283;51.466;5.478;2023-02-02T08:54:00;5.97;;;3.00;;
68365;SDS011;55283;51.466;5.478;2023-02-02T08:56:26;8.27;;;3.15;;
68365;SDS011;55283;51.466;5.478;2023-02-02T08:58:52;6.13;;;3.10;;
68365;SDS011;55283;51.466;5.478;2023-02-02T09:01:20;8.57;;;3.13;;
68365;SDS011;55283;51.466;5.478;2023-02-02T09:03:47;7.93;;;3.03;;
68365;SDS011;55283;51.466;5.478;2023-02-02T09:06:14;8.83;;;2.80;;
68365;SDS011;55283;51.466;5.478;2023-02-02T09:08:41;10.88;;;2.90;;
68365;SDS011;55283;51.466;5.478;2023-02-02T09:11:08;8.37;;;3.10;;
68365;SDS011;55283;51.466;5.478;2023-02-02T09:13:36;7.60;;;3.05;;
68365;SDS011;55283;51.466;5.478;2023-02-02T09:16:02;8.55;;;3.15;;
68365;SDS011;55283;51.466;5.478;2023-02-02T09:18:29;6.85;;;2.70;;
68365;SDS011;55283;51.466;5.478;2023-02-02T09:20:58;6.57;;;2.83;;
68365;SDS011;55283;51.466;5.478;2023-02-02T09:23:24;7.00;;;2.83;;
68365;SDS011;55283;51.466;5.478;2023-02-02T09:25:50;8.90;;;2.90;;
68365;SDS011;55283;51.466;5.478;2023-02-02T09:28:16;4.97;;;2.50;;
68365;SDS011;55283;51.466;5.478;2023-02-02T09:30:41;6.30;;;3.00;;
68365;SDS011;55283;51.466;5.478;2023-02-02T09:33:07;6.87;;;2.83;;
68365;SDS011;55283;51.466;5.478;2023-02-02T09:35:33;5.95;;;2.85;;
68365;SDS011;55283;51.466;5.478;2023-02-02T09:37:58;6.87;;;2.60;;
68365;SDS011;55283;51.466;5.478;2023-02-02T09:40:23;5.37;;;2.70;;
68365;SDS011;55283;51.466;5.478;2023-02-02T09:50:56;5.07;;;2.42;;
68365;SDS011;55283;51.466;5.478;2023-02-02T09:56:04;5.00;;;2.35;;
68365;SDS011;55283;51.466;5.478;2023-02-02T09:58:33;4.93;;;2.63;;
68365;SDS011;55283;51.466;5.478;2023-02-02T10:01:15;4.38;;;2.40;;
68365;SDS011;55283;51.466;5.478;2023-02-02T10:08:49;9.27;;;3.00;;
68365;SDS011;55283;51.466;5.478;2023-02-02T10:14:07;6.07;;;2.55;;
68365;SDS011;55283;51.466;5.478;2023-02-02T10:16:39;6.18;;;2.75;;
68365;SDS011;55283;51.466;5.478;2023-02-02T10:19:08;8.30;;;2.77;;
68365;SDS011;55283;51.466;5.478;2023-02-02T10:21:39;5.50;;;2.40;;
68365;SDS011;55283;51.466;5.478;2023-02-02T10:24:17;5.30;;;2.40;;
68365;SDS011;55283;51.466;5.478;2023-02-02T10:26:45;5.20;;;2.43;;
68365;SDS011;55283;51.466;5.478;2023-02-02T10:29:15;5.15;;;2.25;;
68365;SDS011;55283;51.466;5.478;2023-02-02T10:32:12;4.95;;;2.50;;
68365;SDS011;55283;51.466;5.478;2023-02-02T10:34:55;4.47;;;2.60;;
68365;SDS011;55283;51.466;5.478;2023-02-02T10:37:31;6.20;;;2.67;;
68365;SDS011;55283;51.466;5.478;2023-02-02T10:43:07;5.43;;;2.72;;
68365;SDS011;55283;51.466;5.478;2023-02-02T10:46:10;6.57;;;2.80;;
68365;SDS011;55283;51.466;5.478;2023-02-02T10:48:42;6.28;;;2.60;;
68365;SDS011;55283;51.466;5.478;2023-02-02T10:51:19;5.43;;;2.70;;
68365;SDS011;55283;51.466;5.478;2023-02-02T10:53:52;6.17;;;2.80;;
68365;SDS011;55283;51.466;5.478;2023-02-02T10:56:30;7.03;;;2.70;;
68365;SDS011;55283;51.466;5.478;2023-02-02T10:59:05;7.03;;;2.80;;
68365;SDS011;55283;51.466;5.478;2023-02-02T11:01:35;3.63;;;2.30;;
68365;SDS011;55283;51.466;5.478;2023-02-02T11:04:01;5.50;;;2.60;;
68365;SDS011;55283;51.466;5.478;2023-02-02T11:06:45;5.03;;;2.70;;
68365;SDS011;55283;51.466;5.478;2023-02-02T11:09:13;4.57;;;2.47;;
68365;SDS011;55283;51.466;5.478;2023-02-02T11:11:51;5.20;;;2.42;;
68365;SDS011;55283;51.466;5.478;2023-02-02T11:14:23;6.15;;;2.85;;
68365;SDS011;55283;51.466;5.478;2023-02-02T11:17:04;4.53;;;2.50;;
68365;SDS011;55283;51.466;5.478;2023-02-02T11:19:31;5.20;;;2.70;;
68365;SDS011;55283;51.466;5.478;2023-02-02T11:22:00;4.82;;;2.50;;
68365;SDS011;55283;51.466;5.478;2023-02-02T11:24:28;7.10;;;2.87;;
68365;SDS011;55283;51.466;5.478;2023-02-02T11:27:14;5.72;;;2.70;;
68365;SDS011;55283;51.466;5.478;2023-02-02T11:29:47;5.85;;;2.63;;
68365;SDS011;55283;51.466;5.478;2023-02-02T11:37:35;5.15;;;2.60;;
68365;SDS011;55283;51.466;5.478;2023-02-02T11:40:19;5.35;;;2.60;;
68365;SDS011;55283;51.466;5.478;2023-02-02T11:42:52;5.57;;;2.30;;
68365;SDS011;55283;51.466;5.478;2023-02-02T11:45:34;4.82;;;2.28;;
68365;SDS011;55283;51.466;5.478;2023-02-02T11:48:03;6.28;;;2.55;;
68365;SDS011;55283;51.466;5.478;2023-02-02T11:50:43;6.33;;;2.27;;
68365;SDS011;55283;51.466;5.478;2023-02-02T11:53:23;8.77;;;2.50;;
68365;SDS011;55283;51.466;5.478;2023-02-02T11:55:54;4.30;;;2.35;;
68365;SDS011;55283;51.466;5.478;2023-02-02T11:58:23;6.03;;;2.13;;
68365;SDS011;55283;51.466;5.478;2023-02-02T12:00:54;7.10;;;2.50;;
68365;SDS011;55283;51.466;5.478;2023-02-02T12:03:29;4.07;;;2.40;;
68365;SDS011;55283;51.466;5.478;2023-02-02T12:06:04;4.82;;;2.30;;
68365;SDS011;55283;51.466;5.478;2023-02-02T12:08:42;6.23;;;2.30;;
68365;SDS011;55283;51.466;5.478;2023-02-02T12:11:07;4.47;;;2.35;;
68365;SDS011;55283;51.466;5.478;2023-02-02T12:21:52;4.97;;;2.30;;
68365;SDS011;55283;51.466;5.478;2023-02-02T12:24:34;4.90;;;2.30;;
68365;SDS011;55283;51.466;5.478;2023-02-02T12:36:16;6.57;;;2.15;;
68365;SDS011;55283;51.466;5.478;2023-02-02T12:50:23;4.23;;;2.00;;
68365;SDS011;55283;51.466;5.478;2023-02-02T12:56:03;3.90;;;2.10;;
68365;SDS011;55283;51.466;5.478;2023-02-02T12:58:51;5.17;;;2.10;;
68365;SDS011;55283;51.466;5.478;2023-02-02T13:07:01;5.72;;;2.40;;
68365;SDS011;55283;51.466;5.478;2023-02-02T13:09:47;5.13;;;2.00;;
68365;SDS011;55283;51.466;5.478;2023-02-02T13:12:22;3.78;;;2.10;;
68365;SDS011;55283;51.466;5.478;2023-02-02T13:14:52;4.57;;;2.00;;
68365;SDS011;55283;51.466;5.478;2023-02-02T13:17:45;3.80;;;2.07;;
68365;SDS011;55283;51.466;5.478;2023-02-02T13:20:30;5.20;;;2.13;;
68365;SDS011;55283;51.466;5.478;2023-02-02T13:23:26;7.15;;;2.10;;
68365;SDS011;55283;51.466;5.478;2023-02-02T13:25:54;4.17;;;2.10;;
68365;SDS011;55283;51.466;5.478;2023-02-02T13:28:32;4.10;;;2.00;;
68365;SDS011;55283;51.466;5.478;2023-02-02T13:31:03;4.68;;;2.10;;
68365;SDS011;55283;51.466;5.478;2023-02-02T13:33:36;4.07;;;1.98;;
68365;SDS011;55283;51.466;5.478;2023-02-02T13:36:05;3.90;;;2.10;;
68365;SDS011;55283;51.466;5.478;2023-02-02T13:38:38;4.05;;;2.25;;
68365;SDS011;55283;51.466;5.478;2023-02-02T13:41:07;5.03;;;2.15;;
68365;SDS011;55283;51.466;5.478;2023-02-02T13:49:30;3.55;;;2.10;;
68365;SDS011;55283;51.466;5.478;2023-02-02T13:52:18;3.93;;;1.87;;
68365;SDS011;55283;51.466;5.478;2023-02-02T14:00:38;3.45;;;1.88;;
68365;SDS011;55283;51.466;5.478;2023-02-02T14:06:12;3.58;;;1.90;;
68365;SDS011;55283;51.466;5.478;2023-02-02T14:08:45;5.57;;;2.13;;
68365;SDS011;55283;51.466;5.478;2023-02-02T14:11:37;4.77;;;1.77;;
68365;SDS011;55283;51.466;5.478;2023-02-02T14:14:14;3.60;;;1.98;;
68365;SDS011;55283;51.466;5.478;2023-02-02T14:17:00;3.25;;;2.00;;
68365;SDS011;55283;51.466;5.478;2023-02-02T14:31:58;3.25;;;1.92;;
68365;SDS011;55283;51.466;5.478;2023-02-02T14:34:29;2.70;;;1.80;;
68365;SDS011;55283;51.466;5.478;2023-02-02T14:37:18;3.30;;;1.90;;
68365;SDS011;55283;51.466;5.478;2023-02-02T14:39:50;3.60;;;1.70;;
68365;SDS011;55283;51.466;5.478;2023-02-02T14:42:29;2.83;;;1.77;;
68365;SDS011;55283;51.466;5.478;2023-02-02T14:47:52;3.80;;;1.80;;
68365;SDS011;55283;51.466;5.478;2023-02-02T14:50:22;3.88;;;1.50;;
68365;SDS011;55283;51.466;5.478;2023-02-02T14:52:58;3.95;;;1.75;;
68365;SDS011;55283;51.466;5.478;2023-02-02T14:55:28;2.57;;;1.50;;
68365;SDS011;55283;51.466;5.478;2023-02-02T14:57:55;4.38;;;1.80;;
68365;SDS011;55283;51.466;5.478;2023-02-02T15:00:30;3.35;;;1.85;;
68365;SDS011;55283;51.466;5.478;2023-02-02T15:28:37;4.20;;;1.70;;
68365;SDS011;55283;51.466;5.478;2023-02-02T15:31:13;2.83;;;1.70;;
68365;SDS011;55283;51.466;5.478;2023-02-02T15:33:44;3.28;;;1.65;;
68365;SDS011;55283;51.466;5.478;2023-02-02T15:36:22;3.55;;;1.60;;
68365;SDS011;55283;51.466;5.478;2023-02-02T15:38:54;3.10;;;1.70;;
68365;SDS011;55283;51.466;5.478;2023-02-02T15:41:33;4.72;;;1.65;;
68365;SDS011;55283;51.466;5.478;2023-02-02T15:44:27;3.10;;;1.50;;
68365;SDS011;55283;51.466;5.478;2023-02-02T15:46:52;2.65;;;1.60;;
68365;SDS011;55283;51.466;5.478;2023-02-02T15:49:29;2.73;;;1.60;;
68365;SDS011;55283;51.466;5.478;2023-02-02T15:51:57;2.00;;;1.40;;
68365;SDS011;55283;51.466;5.478;2023-02-02T15:54:26;3.20;;;1.52;;
68365;SDS011;55283;51.466;5.478;2023-02-02T15:56:52;2.17;;;1.50;;
68365;SDS011;55283;51.466;5.478;2023-02-02T15:59:23;4.07;;;1.80;;
68365;SDS011;55283;51.466;5.478;2023-02-02T16:04:41;2.83;;;1.40;;
68365;SDS011;55283;51.466;5.478;2023-02-02T16:07:11;2.08;;;1.30;;
68365;SDS011;55283;51.466;5.478;2023-02-02T16:09:47;4.35;;;1.70;;
68365;SDS011;55283;51.466;5.478;2023-02-02T16:12:14;2.90;;;1.60;;
68365;SDS011;55283;51.466;5.478;2023-02-02T16:14:44;3.17;;;1.80;;
68365;SDS011;55283;51.466;5.478;2023-02-02T16:17:22;2.85;;;1.70;;
68365;SDS011;55283;51.466;5.478;2023-02-02T16:19:48;2.23;;;1.50;;
68365;SDS011;55283;51.466;5.478;2023-02-02T16:22:16;2.85;;;1.55;;
68365;SDS011;55283;51.466;5.478;2023-02-02T16:24:49;2.10;;;1.40;;
68365;SDS011;55283;51.466;5.478;2023-02-02T16:27:18;3.70;;;1.63;;
68365;SDS011;55283;51.466;5.478;2023-02-02T16:29:47;3.60;;;1.60;;
68365;SDS011;55283;51.466;5.478;2023-02-02T16:32:27;2.30;;;1.40;;
68365;SDS011;55283;51.466;5.478;2023-02-02T16:34:53;2.17;;;1.33;;
68365;SDS011;55283;51.466;5.478;2023-02-02T16:37:29;3.07;;;1.40;;
68365;SDS011;55283;51.466;5.478;2023-02-02T16:40:13;3.97;;;1.70;;
68365;SDS011;55283;51.466;5.478;2023-02-02T16:43:14;2.15;;;1.33;;
68365;SDS011;55283;51.466;5.478;2023-02-02T16:45:46;4.13;;;1.40;;
68365;SDS011;55283;51.466;5.478;2023-02-02T16:53:29;2.53;;;1.45;;
68365;SDS011;55283;51.466;5.478;2023-02-02T16:55:55;1.80;;;1.30;;
68365;SDS011;55283;51.466;5.478;2023-02-02T16:58:22;2.60;;;1.25;;
68365;SDS011;55283;51.466;5.478;2023-02-02T17:00:52;2.43;;;1.40;;
68365;SDS011;55283;51.466;5.478;2023-02-02T17:03:50;2.78;;;1.50;;
68365;SDS011;55283;51.466;5.478;2023-02-02T17:06:29;2.88;;;1.20;;
68365;SDS011;55283;51.466;5.478;2023-02-02T17:09:10;4.80;;;1.40;;
68365;SDS011;55283;51.466;5.478;2023-02-02T17:11:38;2.97;;;1.50;;
68365;SDS011;55283;51.466;5.478;2023-02-02T17:14:17;4.57;;;1.40;;
68365;SDS011;55283;51.466;5.478;2023-02-02T17:16:44;2.20;;;1.48;;
68365;SDS011;55283;51.466;5.478;2023-02-02T17:19:09;5.13;;;1.60;;
68365;SDS011;55283;51.466;5.478;2023-02-02T17:21:35;3.50;;;1.50;;
68365;SDS011;55283;51.466;5.478;2023-02-02T17:24:00;2.53;;;1.30;;
68365;SDS011;55283;51.466;5.478;2023-02-02T17:26:25;3.37;;;1.40;;
68365;SDS011;55283;51.466;5.478;2023-02-02T17:28:53;4.17;;;1.60;;
68365;SDS011;55283;51.466;5.478;2023-02-02T17:31:20;2.53;;;1.50;;
68365;SDS011;55283;51.466;5.478;2023-02-02T17:33:46;3.28;;;1.50;;
68365;SDS011;55283;51.466;5.478;2023-02-02T17:36:11;2.97;;;1.50;;